Margaret Ann — WDH6962 — position and weather

sailwx.info

Track history (hours):
 
Tides and Currents Weather Stations Pressure Air Temp Water Temp Dewpoint Dewpoint Depression Visibility Wind Speed Wind Dir Waves Ship Positions

Margaret Ann

Owner: Magnolia Marine Transport Company, Vicksburg, MS. More information available from US FCC via Universal Licensing System and Coast Guard Vessel Documentation Center.

Last reported at 2018-Jan-21 22:12 UTC. Time now 2018-Feb-25 18:05 UTC.
Position N 39°12' W 090°36'.
Warning: this ship's position is 34 days out of date.

MMSI: 367643350.

Date/timePositionNaut miles runAvg speedWind from/ knotsBaromVisibWave heightAir tempDewpointWater temp
2018-Jan-21 22:12N 39°12' W 090°36'1 5.7
2018-Jan-21 21:58N 39°11' W 090°36'0 1.0
2018-Jan-21 21:30N 39°11' W 090°36'10 4.5
2018-Jan-21 19:13N 39°00' W 090°35'1 5.7
2018-Jan-21 19:00N 38°59' W 090°34'3 5.3
2018-Jan-21 18:29N 38°57' W 090°32'3 5.2
2018-Jan-21 17:59N 38°58' W 090°28'3 4.5
2018-Jan-21 17:20N 38°58' W 090°25'1 0.7
2018-Jan-21 16:33N 38°58' W 090°24'0 3.4
2018-Jan-21 16:30N 38°58' W 090°24'2 5.0
2018-Jan-21 16:00N 38°57' W 090°21'2 4.2
2018-Jan-21 15:30N 38°55' W 090°19'2 4.0
2018-Jan-21 15:00N 38°55' W 090°16'2 4.0
2018-Jan-21 14:30N 38°55' W 090°14'1 2.4
2018-Jan-21 14:00N 38°54' W 090°13'1 1.2
2018-Jan-21 13:30N 38°54' W 090°12'1 3.0
2018-Jan-21 13:00N 38°53' W 090°10'1 2.4
2018-Jan-21 12:31N 38°52' W 090°09'0 0.1
2018-Jan-21 12:00N 38°52' W 090°09'0 0.5
2018-Jan-21 11:30N 38°52' W 090°09'0 0.0
2018-Jan-21 11:00N 38°52' W 090°09'0 0.3
2018-Jan-21 10:30N 38°52' W 090°09'0 0.7
2018-Jan-21 10:00N 38°52' W 090°08'0 0.1
2018-Jan-21 09:30N 38°52' W 090°08'0 0.7
2018-Jan-21 09:00N 38°52' W 090°08'0 0.3
2018-Jan-21 08:30N 38°51' W 090°08'0 0.1
2018-Jan-21 08:01N 38°51' W 090°08'0 0.2
2018-Jan-21 07:29N 38°51' W 090°08'1 1.0
2018-Jan-21 06:55N 38°51' W 090°07'0 0.1
2018-Jan-21 06:31N 38°51' W 090°07'0 0.0
2018-Jan-21 06:00N 38°51' W 090°07'0 0.0
2018-Jan-21 05:30N 38°51' W 090°07'0 0.0
2018-Jan-21 05:00N 38°51' W 090°07'0 0.0
2018-Jan-21 04:30N 38°51' W 090°07'0 0.0
2018-Jan-21 04:01N 38°51' W 090°07'0 0.0
2018-Jan-21 03:30N 38°51' W 090°07'0 0.0
2018-Jan-21 03:00N 38°51' W 090°07'0 0.0
2018-Jan-21 02:30N 38°51' W 090°07'0 0.0
2018-Jan-21 02:00N 38°51' W 090°07'0 0.0
2018-Jan-21 01:30N 38°51' W 090°07'0 0.0
2018-Jan-21 01:01N 38°51' W 090°07'0 0.0
2018-Jan-21 00:30N 38°51' W 090°07'0 0.0
2018-Jan-21 00:00N 38°51' W 090°07'0 0.0
2018-Jan-20 23:31N 38°51' W 090°07'0 0.0
2018-Jan-20 22:59N 38°51' W 090°07'0 0.0
2018-Jan-20 22:31N 38°51' W 090°07'0 0.0
2018-Jan-20 22:00N 38°51' W 090°07'0 0.0
2018-Jan-20 21:30N 38°51' W 090°07'0 0.0
2018-Jan-20 21:00N 38°51' W 090°07'0 0.0
2018-Jan-20 20:30N 38°51' W 090°07'0 0.0
2018-Jan-20 20:00N 38°51' W 090°07'0 0.0
2018-Jan-20 19:30N 38°51' W 090°07'0 0.0
2018-Jan-20 19:00N 38°51' W 090°07'0 0.0
2018-Jan-20 18:30N 38°51' W 090°07'0 0.0
2018-Jan-20 18:00N 38°51' W 090°07'0 0.0
2018-Jan-20 17:30N 38°51' W 090°07'0 0.0
2018-Jan-20 17:00N 38°51' W 090°07'0 0.0
2018-Jan-20 16:30N 38°51' W 090°07'0 0.0
2018-Jan-20 16:01N 38°51' W 090°07'0 0.0
2018-Jan-20 15:31N 38°51' W 090°07'0 0.0
2018-Jan-20 12:29N 38°51' W 090°07'0 0.0
2018-Jan-20 12:00N 38°51' W 090°07'0 0.0
2018-Jan-20 11:30N 38°51' W 090°07'0 0.0
2018-Jan-20 11:00N 38°51' W 090°07'0 0.0
2018-Jan-20 10:30N 38°51' W 090°07'0 0.0
2018-Jan-20 10:00N 38°51' W 090°07'0 0.0
2018-Jan-20 09:30N 38°51' W 090°07'0 0.0
2018-Jan-20 09:01N 38°51' W 090°07'0 0.0
2018-Jan-20 08:30N 38°51' W 090°07'0 0.0
2018-Jan-20 08:00N 38°51' W 090°07'0 0.0
2018-Jan-20 07:30N 38°51' W 090°07'0 0.0
2018-Jan-20 07:00N 38°51' W 090°07'0 0.0
2018-Jan-20 06:31N 38°51' W 090°07'0 0.0
2018-Jan-20 06:00N 38°51' W 090°07'0 0.0
2018-Jan-20 05:30N 38°51' W 090°07'0 0.0
2018-Jan-20 05:00N 38°51' W 090°07'0 0.0
2018-Jan-20 04:30N 38°51' W 090°07'0 0.0
2018-Jan-20 04:00N 38°51' W 090°07'0 0.0
2018-Jan-20 03:31N 38°51' W 090°07'0 0.0
2018-Jan-20 03:00N 38°51' W 090°07'0 0.6
2018-Jan-20 02:30N 38°51' W 090°07'0 0.0
2018-Jan-20 02:00N 38°51' W 090°07'0 0.0
2018-Jan-20 01:30N 38°51' W 090°07'0 0.0
2018-Jan-20 01:00N 38°51' W 090°07'0 0.0
2018-Jan-20 00:30N 38°51' W 090°07'0 1.0
2018-Jan-20 00:01N 38°51' W 090°07'0 0.4
2018-Jan-19 23:28N 38°51' W 090°07'0 0.9
2018-Jan-19 23:00N 38°51' W 090°07'1 2.3
2018-Jan-19 22:30N 38°52' W 090°09'0 0.5
2018-Jan-19 21:59N 38°52' W 090°09'0 0.1
2018-Jan-19 21:30N 38°52' W 090°09'0 0.0
2018-Jan-19 20:59N 38°52' W 090°09'0 0.5
2018-Jan-19 20:30N 38°52' W 090°09'1 1.9
2018-Jan-19 19:58N 38°51' W 090°08'1 2.2
2018-Jan-19 19:30N 38°52' W 090°09'0 0.0
2018-Jan-19 18:58N 38°52' W 090°09'2 3.5
2018-Jan-19 18:30N 38°51' W 090°07'0 0.0
2018-Jan-19 18:00N 38°51' W 090°07'0 0.0
2018-Jan-19 17:30N 38°51' W 090°07'0 0.0
2018-Jan-19 16:49N 38°51' W 090°07'0 0.0
2018-Jan-19 16:30N 38°51' W 090°07'0 0.0
2018-Jan-19 16:00N 38°51' W 090°07'0 0.0
2018-Jan-19 15:30N 38°51' W 090°07'0 0.0
2018-Jan-19 15:00N 38°51' W 090°07'0 0.0
2018-Jan-19 14:30N 38°51' W 090°07'0 0.1
2018-Jan-19 14:00N 38°51' W 090°07'0 0.4
2018-Jan-19 13:31N 38°51' W 090°07'0 0.0
2018-Jan-19 13:00N 38°51' W 090°07'0 0.0
2018-Jan-19 12:30N 38°51' W 090°07'0 0.0
2018-Jan-19 12:00N 38°51' W 090°07'0 0.0
2018-Jan-19 11:30N 38°51' W 090°07'0 0.0
2018-Jan-19 11:00N 38°51' W 090°07'0 0.0
2018-Jan-19 10:30N 38°51' W 090°07'0 0.0
2018-Jan-19 10:01N 38°51' W 090°07'0 0.0
2018-Jan-19 09:30N 38°51' W 090°07'0 0.0
2018-Jan-19 09:00N 38°51' W 090°07'0 0.0
2018-Jan-19 08:31N 38°51' W 090°07'0 0.0
2018-Jan-19 08:01N 38°51' W 090°07'0 0.0
2018-Jan-19 07:30N 38°51' W 090°07'0 0.0
2018-Jan-19 07:00N 38°51' W 090°07'0 0.0
2018-Jan-19 06:30N 38°51' W 090°07'0 0.0
2018-Jan-19 06:00N 38°51' W 090°07'0 0.0
2018-Jan-19 05:30N 38°51' W 090°07'0 0.0
2018-Jan-19 05:00N 38°51' W 090°07'0 0.0
2018-Jan-19 04:30N 38°51' W 090°07'0 0.0
2018-Jan-19 04:00N 38°51' W 090°07'0 0.0
2018-Jan-19 03:31N 38°51' W 090°07'0 0.0
2018-Jan-19 03:00N 38°51' W 090°07'0 0.0
2018-Jan-19 02:30N 38°51' W 090°07'0 0.0
2018-Jan-19 02:00N 38°51' W 090°07'0 0.0
2018-Jan-19 01:30N 38°51' W 090°07'0 0.0
2018-Jan-19 01:00N 38°51' W 090°07'0 0.0
2018-Jan-19 00:30N 38°51' W 090°07'0 0.0
2018-Jan-19 00:00N 38°51' W 090°07'0 0.0
2018-Jan-18 23:30N 38°51' W 090°07'0 0.0
2018-Jan-18 23:00N 38°51' W 090°07'0 0.0
2018-Jan-18 22:30N 38°51' W 090°07'0 0.0
2018-Jan-18 22:00N 38°51' W 090°07'0 0.0
2018-Jan-18 21:30N 38°51' W 090°07'0 0.0
2018-Jan-18 21:00N 38°51' W 090°07'0 0.0
2018-Jan-18 20:30N 38°51' W 090°07'0 0.0
2018-Jan-18 20:00N 38°51' W 090°07'0 0.0
2018-Jan-18 19:30N 38°51' W 090°07'0 0.0
2018-Jan-18 19:00N 38°51' W 090°07'0 0.0
2018-Jan-18 18:30N 38°51' W 090°07'0 0.0
2018-Jan-18 18:00N 38°51' W 090°07'0 0.0
2018-Jan-18 17:31N 38°51' W 090°07'2 3.9
2018-Jan-18 17:00N 38°49' W 090°07'8 5.1
2018-Jan-18 15:27N 38°42' W 090°11'0 0.6
2018-Jan-18 14:43N 38°42' W 090°11'0 0.2
2018-Jan-18 13:33N 38°42' W 090°11'0 1.3
2018-Jan-18 13:26N 38°42' W 090°11'0 0.1
2018-Jan-18 13:00N 38°42' W 090°11'0 0.0
2018-Jan-18 12:30N 38°42' W 090°11'0 0.0
2018-Jan-18 11:58N 38°42' W 090°11'1 1.1
2018-Jan-18 11:29N 38°42' W 090°11'5 4.4
2018-Jan-18 10:18N 38°47' W 090°08'3 5.1
2018-Jan-18 09:48N 38°49' W 090°07'2 5.6
2018-Jan-18 09:30N 38°51' W 090°07'0 0.4
2018-Jan-18 09:01N 38°51' W 090°07'0 0.0
2018-Jan-18 08:30N 38°51' W 090°07'0 0.0
2018-Jan-18 08:00N 38°51' W 090°07'0 0.0
2018-Jan-18 07:30N 38°51' W 090°07'0 0.0
2018-Jan-18 07:00N 38°51' W 090°07'0 0.0
2018-Jan-18 06:30N 38°51' W 090°07'0 0.0
2018-Jan-18 06:00N 38°51' W 090°07'0 0.0
2018-Jan-18 05:30N 38°51' W 090°07'0 0.0
2018-Jan-18 05:00N 38°51' W 090°07'0 0.0
2018-Jan-18 04:30N 38°51' W 090°07'0 0.0
2018-Jan-18 04:00N 38°51' W 090°07'0 0.0
2018-Jan-18 03:31N 38°51' W 090°07'0 0.0
2018-Jan-18 03:00N 38°51' W 090°07'0 0.0
2018-Jan-18 02:30N 38°51' W 090°07'0 0.0
2018-Jan-18 02:00N 38°51' W 090°07'0 0.0
2018-Jan-18 01:30N 38°51' W 090°07'1 1.7
2018-Jan-18 01:01N 38°50' W 090°06'5 5.2
2018-Jan-17 23:59N 38°45' W 090°09'1 5.1
2018-Jan-17 23:48N 38°45' W 090°09'  
2018-Jan-12 15:01N 38°51' W 090°07'0 0.0
2018-Jan-12 14:30N 38°51' W 090°07'0 0.0
2018-Jan-12 14:01N 38°51' W 090°07'0 0.0
2018-Jan-12 13:31N 38°51' W 090°07'0 0.0
2018-Jan-12 13:01N 38°51' W 090°07'0 0.0
2018-Jan-12 12:31N 38°51' W 090°07'0 0.0
2018-Jan-12 12:01N 38°51' W 090°07'0 0.0
2018-Jan-12 11:31N 38°51' W 090°07'0 0.0
2018-Jan-12 11:01N 38°51' W 090°07'0 0.0
2018-Jan-12 10:31N 38°51' W 090°07'0 0.0
2018-Jan-12 10:01N 38°51' W 090°07'0 0.0
2018-Jan-12 09:31N 38°51' W 090°07'0 0.0
2018-Jan-12 09:01N 38°51' W 090°07'0 0.0
2018-Jan-12 08:31N 38°51' W 090°07'0 0.0
2018-Jan-12 08:01N 38°51' W 090°07'0 0.0
2018-Jan-12 07:31N 38°51' W 090°07'0 0.0
2018-Jan-12 07:00N 38°51' W 090°07'0 0.0
2018-Jan-12 06:31N 38°51' W 090°07'0 0.0
2018-Jan-12 06:01N 38°51' W 090°07'0 0.0
2018-Jan-12 05:31N 38°51' W 090°07'0 0.0
2018-Jan-12 05:01N 38°51' W 090°07'0 0.0
2018-Jan-12 04:31N 38°51' W 090°07'0 0.0
2018-Jan-12 04:01N 38°51' W 090°07'0 0.0
2018-Jan-12 03:30N 38°51' W 090°07'0 0.0
2018-Jan-12 03:01N 38°51' W 090°07'0 0.0
2018-Jan-12 02:31N 38°51' W 090°07'0 0.0
2018-Jan-12 02:00N 38°51' W 090°07'0 0.0
2018-Jan-12 01:31N 38°51' W 090°07'0 0.1
2018-Jan-12 01:01N 38°51' W 090°07'0 0.0
2018-Jan-12 00:31N 38°51' W 090°07'0 0.0
2018-Jan-12 00:01N 38°51' W 090°07'0 0.0
2018-Jan-11 23:31N 38°51' W 090°07'0 0.0
2018-Jan-11 23:01N 38°51' W 090°07'0 0.0
2018-Jan-11 22:31N 38°51' W 090°07'  
Track history (hours):
 
Tides and Currents Weather Stations Pressure Air Temp Water Temp Dewpoint Dewpoint Depression Visibility Wind Speed Wind Dir Waves Ship Positions

Margaret Ann

Owner: Magnolia Marine Transport Company, Vicksburg, MS. More information available from US FCC via Universal Licensing System and Coast Guard Vessel Documentation Center.

Last reported at 2018-Jan-21 22:12 UTC. Time now 2018-Feb-25 18:05 UTC.
Position N 39°12' W 090°36'.
Warning: this ship's position is 34 days out of date.

MMSI: 367643350.

Date/timePositionNaut miles runAvg speedWind from/ knotsBaromVisibWave heightAir tempDewpointWater temp
2018-Jan-21 22:12N 39°12' W 090°36'1 5.7
2018-Jan-21 21:58N 39°11' W 090°36'0 1.0
2018-Jan-21 21:30N 39°11' W 090°36'10 4.5
2018-Jan-21 19:13N 39°00' W 090°35'1 5.7
2018-Jan-21 19:00N 38°59' W 090°34'3 5.3
2018-Jan-21 18:29N 38°57' W 090°32'3 5.2
2018-Jan-21 17:59N 38°58' W 090°28'3 4.5
2018-Jan-21 17:20N 38°58' W 090°25'1 0.7
2018-Jan-21 16:33N 38°58' W 090°24'0 3.4
2018-Jan-21 16:30N 38°58' W 090°24'2 5.0
2018-Jan-21 16:00N 38°57' W 090°21'2 4.2
2018-Jan-21 15:30N 38°55' W 090°19'2 4.0
2018-Jan-21 15:00N 38°55' W 090°16'2 4.0
2018-Jan-21 14:30N 38°55' W 090°14'1 2.4
2018-Jan-21 14:00N 38°54' W 090°13'1 1.2
2018-Jan-21 13:30N 38°54' W 090°12'1 3.0
2018-Jan-21 13:00N 38°53' W 090°10'1 2.4
2018-Jan-21 12:31N 38°52' W 090°09'0 0.1
2018-Jan-21 12:00N 38°52' W 090°09'0 0.5
2018-Jan-21 11:30N 38°52' W 090°09'0 0.0
2018-Jan-21 11:00N 38°52' W 090°09'0 0.3
2018-Jan-21 10:30N 38°52' W 090°09'0 0.7
2018-Jan-21 10:00N 38°52' W 090°08'0 0.1
2018-Jan-21 09:30N 38°52' W 090°08'0 0.7
2018-Jan-21 09:00N 38°52' W 090°08'0 0.3
2018-Jan-21 08:30N 38°51' W 090°08'0 0.1
2018-Jan-21 08:01N 38°51' W 090°08'0 0.2
2018-Jan-21 07:29N 38°51' W 090°08'1 1.0
2018-Jan-21 06:55N 38°51' W 090°07'0 0.1
2018-Jan-21 06:31N 38°51' W 090°07'0 0.0
2018-Jan-21 06:00N 38°51' W 090°07'0 0.0
2018-Jan-21 05:30N 38°51' W 090°07'0 0.0
2018-Jan-21 05:00N 38°51' W 090°07'0 0.0
2018-Jan-21 04:30N 38°51' W 090°07'0 0.0
2018-Jan-21 04:01N 38°51' W 090°07'0 0.0
2018-Jan-21 03:30N 38°51' W 090°07'0 0.0
2018-Jan-21 03:00N 38°51' W 090°07'0 0.0
2018-Jan-21 02:30N 38°51' W 090°07'0 0.0
2018-Jan-21 02:00N 38°51' W 090°07'0 0.0
2018-Jan-21 01:30N 38°51' W 090°07'0 0.0
2018-Jan-21 01:01N 38°51' W 090°07'0 0.0
2018-Jan-21 00:30N 38°51' W 090°07'0 0.0
2018-Jan-21 00:00N 38°51' W 090°07'0 0.0
2018-Jan-20 23:31N 38°51' W 090°07'0 0.0
2018-Jan-20 22:59N 38°51' W 090°07'0 0.0
2018-Jan-20 22:31N 38°51' W 090°07'0 0.0
2018-Jan-20 22:00N 38°51' W 090°07'0 0.0
2018-Jan-20 21:30N 38°51' W 090°07'0 0.0
2018-Jan-20 21:00N 38°51' W 090°07'0 0.0
2018-Jan-20 20:30N 38°51' W 090°07'0 0.0
2018-Jan-20 20:00N 38°51' W 090°07'0 0.0
2018-Jan-20 19:30N 38°51' W 090°07'0 0.0
2018-Jan-20 19:00N 38°51' W 090°07'0 0.0
2018-Jan-20 18:30N 38°51' W 090°07'0 0.0
2018-Jan-20 18:00N 38°51' W 090°07'0 0.0
2018-Jan-20 17:30N 38°51' W 090°07'0 0.0
2018-Jan-20 17:00N 38°51' W 090°07'0 0.0
2018-Jan-20 16:30N 38°51' W 090°07'0 0.0
2018-Jan-20 16:01N 38°51' W 090°07'0 0.0
2018-Jan-20 15:31N 38°51' W 090°07'0 0.0
2018-Jan-20 12:29N 38°51' W 090°07'0 0.0
2018-Jan-20 12:00N 38°51' W 090°07'0 0.0
2018-Jan-20 11:30N 38°51' W 090°07'0 0.0
2018-Jan-20 11:00N 38°51' W 090°07'0 0.0
2018-Jan-20 10:30N 38°51' W 090°07'0 0.0
2018-Jan-20 10:00N 38°51' W 090°07'0 0.0
2018-Jan-20 09:30N 38°51' W 090°07'0 0.0
2018-Jan-20 09:01N 38°51' W 090°07'0 0.0
2018-Jan-20 08:30N 38°51' W 090°07'0 0.0
2018-Jan-20 08:00N 38°51' W 090°07'0 0.0
2018-Jan-20 07:30N 38°51' W 090°07'0 0.0
2018-Jan-20 07:00N 38°51' W 090°07'0 0.0
2018-Jan-20 06:31N 38°51' W 090°07'0 0.0
2018-Jan-20 06:00N 38°51' W 090°07'0 0.0
2018-Jan-20 05:30N 38°51' W 090°07'0 0.0
2018-Jan-20 05:00N 38°51' W 090°07'0 0.0
2018-Jan-20 04:30N 38°51' W 090°07'0 0.0
2018-Jan-20 04:00N 38°51' W 090°07'0 0.0
2018-Jan-20 03:31N 38°51' W 090°07'0 0.0
2018-Jan-20 03:00N 38°51' W 090°07'0 0.6
2018-Jan-20 02:30N 38°51' W 090°07'0 0.0
2018-Jan-20 02:00N 38°51' W 090°07'0 0.0
2018-Jan-20 01:30N 38°51' W 090°07'0 0.0
2018-Jan-20 01:00N 38°51' W 090°07'0 0.0
2018-Jan-20 00:30N 38°51' W 090°07'0 1.0
2018-Jan-20 00:01N 38°51' W 090°07'0 0.4
2018-Jan-19 23:28N 38°51' W 090°07'0 0.9
2018-Jan-19 23:00N 38°51' W 090°07'1 2.3
2018-Jan-19 22:30N 38°52' W 090°09'0 0.5
2018-Jan-19 21:59N 38°52' W 090°09'0 0.1
2018-Jan-19 21:30N 38°52' W 090°09'0 0.0
2018-Jan-19 20:59N 38°52' W 090°09'0 0.5
2018-Jan-19 20:30N 38°52' W 090°09'1 1.9
2018-Jan-19 19:58N 38°51' W 090°08'1 2.2
2018-Jan-19 19:30N 38°52' W 090°09'0 0.0
2018-Jan-19 18:58N 38°52' W 090°09'2 3.5
2018-Jan-19 18:30N 38°51' W 090°07'0 0.0
2018-Jan-19 18:00N 38°51' W 090°07'0 0.0
2018-Jan-19 17:30N 38°51' W 090°07'0 0.0
2018-Jan-19 16:49N 38°51' W 090°07'0 0.0
2018-Jan-19 16:30N 38°51' W 090°07'0 0.0
2018-Jan-19 16:00N 38°51' W 090°07'0 0.0
2018-Jan-19 15:30N 38°51' W 090°07'0 0.0
2018-Jan-19 15:00N 38°51' W 090°07'0 0.0
2018-Jan-19 14:30N 38°51' W 090°07'0 0.1
2018-Jan-19 14:00N 38°51' W 090°07'0 0.4
2018-Jan-19 13:31N 38°51' W 090°07'0 0.0
2018-Jan-19 13:00N 38°51' W 090°07'0 0.0
2018-Jan-19 12:30N 38°51' W 090°07'0 0.0
2018-Jan-19 12:00N 38°51' W 090°07'0 0.0
2018-Jan-19 11:30N 38°51' W 090°07'0 0.0
2018-Jan-19 11:00N 38°51' W 090°07'0 0.0
2018-Jan-19 10:30N 38°51' W 090°07'0 0.0
2018-Jan-19 10:01N 38°51' W 090°07'0 0.0
2018-Jan-19 09:30N 38°51' W 090°07'0 0.0
2018-Jan-19 09:00N 38°51' W 090°07'0 0.0
2018-Jan-19 08:31N 38°51' W 090°07'0 0.0
2018-Jan-19 08:01N 38°51' W 090°07'0 0.0
2018-Jan-19 07:30N 38°51' W 090°07'0 0.0
2018-Jan-19 07:00N 38°51' W 090°07'0 0.0
2018-Jan-19 06:30N 38°51' W 090°07'0 0.0
2018-Jan-19 06:00N 38°51' W 090°07'0 0.0
2018-Jan-19 05:30N 38°51' W 090°07'0 0.0
2018-Jan-19 05:00N 38°51' W 090°07'0 0.0
2018-Jan-19 04:30N 38°51' W 090°07'0 0.0
2018-Jan-19 04:00N 38°51' W 090°07'0 0.0
2018-Jan-19 03:31N 38°51' W 090°07'0 0.0
2018-Jan-19 03:00N 38°51' W 090°07'0 0.0
2018-Jan-19 02:30N 38°51' W 090°07'0 0.0
2018-Jan-19 02:00N 38°51' W 090°07'0 0.0
2018-Jan-19 01:30N 38°51' W 090°07'0 0.0
2018-Jan-19 01:00N 38°51' W 090°07'0 0.0
2018-Jan-19 00:30N 38°51' W 090°07'0 0.0
2018-Jan-19 00:00N 38°51' W 090°07'0 0.0
2018-Jan-18 23:30N 38°51' W 090°07'0 0.0
2018-Jan-18 23:00N 38°51' W 090°07'0 0.0
2018-Jan-18 22:30N 38°51' W 090°07'0 0.0
2018-Jan-18 22:00N 38°51' W 090°07'0 0.0
2018-Jan-18 21:30N 38°51' W 090°07'0 0.0
2018-Jan-18 21:00N 38°51' W 090°07'0 0.0
2018-Jan-18 20:30N 38°51' W 090°07'0 0.0
2018-Jan-18 20:00N 38°51' W 090°07'0 0.0
2018-Jan-18 19:30N 38°51' W 090°07'0 0.0
2018-Jan-18 19:00N 38°51' W 090°07'0 0.0
2018-Jan-18 18:30N 38°51' W 090°07'0 0.0
2018-Jan-18 18:00N 38°51' W 090°07'0 0.0
2018-Jan-18 17:31N 38°51' W 090°07'2 3.9
2018-Jan-18 17:00N 38°49' W 090°07'8 5.1
2018-Jan-18 15:27N 38°42' W 090°11'0 0.6
2018-Jan-18 14:43N 38°42' W 090°11'0 0.2
2018-Jan-18 13:33N 38°42' W 090°11'0 1.3
2018-Jan-18 13:26N 38°42' W 090°11'0 0.1
2018-Jan-18 13:00N 38°42' W 090°11'0 0.0
2018-Jan-18 12:30N 38°42' W 090°11'0 0.0
2018-Jan-18 11:58N 38°42' W 090°11'1 1.1
2018-Jan-18 11:29N 38°42' W 090°11'5 4.4
2018-Jan-18 10:18N 38°47' W 090°08'3 5.1
2018-Jan-18 09:48N 38°49' W 090°07'2 5.6
2018-Jan-18 09:30N 38°51' W 090°07'0 0.4
2018-Jan-18 09:01N 38°51' W 090°07'0 0.0
2018-Jan-18 08:30N 38°51' W 090°07'0 0.0
2018-Jan-18 08:00N 38°51' W 090°07'0 0.0
2018-Jan-18 07:30N 38°51' W 090°07'0 0.0
2018-Jan-18 07:00N 38°51' W 090°07'0 0.0
2018-Jan-18 06:30N 38°51' W 090°07'0 0.0
2018-Jan-18 06:00N 38°51' W 090°07'0 0.0
2018-Jan-18 05:30N 38°51' W 090°07'0 0.0
2018-Jan-18 05:00N 38°51' W 090°07'0 0.0
2018-Jan-18 04:30N 38°51' W 090°07'0 0.0
2018-Jan-18 04:00N 38°51' W 090°07'0 0.0
2018-Jan-18 03:31N 38°51' W 090°07'0 0.0
2018-Jan-18 03:00N 38°51' W 090°07'0 0.0
2018-Jan-18 02:30N 38°51' W 090°07'0 0.0
2018-Jan-18 02:00N 38°51' W 090°07'0 0.0
2018-Jan-18 01:30N 38°51' W 090°07'1 1.7
2018-Jan-18 01:01N 38°50' W 090°06'5 5.2
2018-Jan-17 23:59N 38°45' W 090°09'1 5.1
2018-Jan-17 23:48N 38°45' W 090°09'  
2018-Jan-12 15:01N 38°51' W 090°07'0 0.0
2018-Jan-12 14:30N 38°51' W 090°07'0 0.0
2018-Jan-12 14:01N 38°51' W 090°07'0 0.0
2018-Jan-12 13:31N 38°51' W 090°07'0 0.0
2018-Jan-12 13:01N 38°51' W 090°07'0 0.0
2018-Jan-12 12:31N 38°51' W 090°07'0 0.0
2018-Jan-12 12:01N 38°51' W 090°07'0 0.0
2018-Jan-12 11:31N 38°51' W 090°07'0 0.0
2018-Jan-12 11:01N 38°51' W 090°07'0 0.0
2018-Jan-12 10:31N 38°51' W 090°07'0 0.0
2018-Jan-12 10:01N 38°51' W 090°07'0 0.0
2018-Jan-12 09:31N 38°51' W 090°07'0 0.0
2018-Jan-12 09:01N 38°51' W 090°07'0 0.0
2018-Jan-12 08:31N 38°51' W 090°07'0 0.0
2018-Jan-12 08:01N 38°51' W 090°07'0 0.0
2018-Jan-12 07:31N 38°51' W 090°07'0 0.0
2018-Jan-12 07:00N 38°51' W 090°07'0 0.0
2018-Jan-12 06:31N 38°51' W 090°07'0 0.0
2018-Jan-12 06:01N 38°51' W 090°07'0 0.0
2018-Jan-12 05:31N 38°51' W 090°07'0 0.0
2018-Jan-12 05:01N 38°51' W 090°07'0 0.0
2018-Jan-12 04:31N 38°51' W 090°07'0 0.0
2018-Jan-12 04:01N 38°51' W 090°07'0 0.0
2018-Jan-12 03:30N 38°51' W 090°07'0 0.0
2018-Jan-12 03:01N 38°51' W 090°07'0 0.0
2018-Jan-12 02:31N 38°51' W 090°07'0 0.0
2018-Jan-12 02:00N 38°51' W 090°07'0 0.0
2018-Jan-12 01:31N 38°51' W 090°07'0 0.1
2018-Jan-12 01:01N 38°51' W 090°07'0 0.0
2018-Jan-12 00:31N 38°51' W 090°07'0 0.0
2018-Jan-12 00:01N 38°51' W 090°07'0 0.0
2018-Jan-11 23:31N 38°51' W 090°07'0 0.0
2018-Jan-11 23:01N 38°51' W 090°07'0 0.0
2018-Jan-11 22:31N 38°51' W 090°07'  

Dump ship's entire track history